Fort Richardson, Alaska
Current Conditions -  °F | °C
As of 2:58 PM on Friday 31 Oct 2014 (Local Time) from PAED Reporting Station
Scattered Clouds Scattered Clouds  
Wind Chill: 19°   Ceiling: Unl
Heat Index: 26°   Visibility: 10mi
Dew Point: 16°   Wind: 6mph
Humidity: 65%   Direction: 60°ENE
Pressure: 29.2"   Gusts: NA
Location:  61.25°N, 149.69°W
Report Text: PAED 312258Z AUTO 06005KT 10SM SCT060 M03/M09 A2920 RMK AO2 SLP886 T10331090 $
Loading
Personal Weather Stations






























Interactive Weather Map
Tropical Storm Tracking
New forecast layout! Learn more

10-Day Weather Forecast

Advertisements
Track Severe Weather on mobile